Time;durP1;ratioP1;P1;durP2;ratioP2;P2;SDS_P1;SDS_P2;PMS_P1;PMS_P2;Temp;Humidity;BMP_temperature;BMP_pressure;BME280_temperature;BME280_humidity;BME280_pressure;Samples;Min_cycle;Max_cycle;Signal;HPM_P1;HPM_P2
2023/08/08 00:01:42;;;;;;;4.63;2.00;;;;;;;;;;5078031;28;20243;-85
2023/08/08 00:04:09;;;;;;;2.10;2.00;;;;;;;;;;5078168;28;20235;-85
2023/08/08 00:06:36;;;;;;;2.07;1.87;;;;;;;;;;5060659;28;20719;-85
2023/08/08 00:09:04;;;;;;;4.77;2.20;;;;;;;;;;5058588;28;20228;-85
2023/08/08 00:11:33;;;;;;;2.13;1.93;;;;;;;;;;5057850;28;20218;-85
2023/08/08 00:14:00;;;;;;;2.03;1.87;;;;;;;;;;5058077;28;20232;-85
2023/08/08 00:16:27;;;;;;;3.20;2.10;;;;;;;;;;5058015;28;20201;-85
2023/08/08 00:18:54;;;;;;;2.20;2.00;;;;;;;;;;5058217;28;20205;-85
2023/08/08 00:21:21;;;;;;;2.47;2.27;;;;;;;;;;5056270;28;20210;-85
2023/08/08 00:23:48;;;;;;;5.00;2.10;;;;;;;;;;5056805;28;20226;-85
2023/08/08 00:26:15;;;;;;;2.60;2.20;;;;;;;;;;5057125;28;20230;-85
2023/08/08 00:28:44;;;;;;;3.60;2.23;;;;;;;;;;5058067;28;20229;-86
2023/08/08 00:31:11;;;;;;;5.93;2.53;;;;;;;;;;5066826;28;20209;-85
2023/08/08 00:33:38;;;;;;;3.70;2.30;;;;;;;;;;5078113;28;20209;-85
2023/08/08 00:36:05;;;;;;;3.70;2.40;;;;;;;;;;5077720;28;20205;-85
2023/08/08 00:38:32;;;;;;;2.37;2.20;;;;;;;;;;5077546;28;20232;-85
2023/08/08 00:40:59;;;;;;;2.10;2.00;;;;;;;;;;5077610;28;20695;-85
2023/08/08 00:43:26;;;;;;;2.07;1.97;;;;;;;;;;5077038;28;20248;-85
2023/08/08 00:45:54;;;;;;;5.27;2.33;;;;;;;;;;5075126;28;20232;-85
2023/08/08 00:48:21;;;;;;;2.73;2.47;;;;;;;;;;5056997;28;20245;-85
2023/08/08 00:50:50;;;;;;;2.73;2.00;;;;;;;;;;5057578;28;20217;-85
2023/08/08 00:53:17;;;;;;;4.90;2.03;;;;;;;;;;5056773;28;20238;-85
2023/08/08 00:55:44;;;;;;;2.13;1.93;;;;;;;;;;5057450;28;20242;-85
2023/08/08 00:58:11;;;;;;;3.20;2.33;;;;;;;;;;5060105;28;20259;-85
2023/08/08 01:00:38;;;;;;;2.27;2.07;;;;;;;;;;5066457;28;20209;-85
2023/08/08 01:03:07;;;;;;;2.97;1.97;;;;;;;;;;5071707;28;20233;-85
2023/08/08 01:05:36;;;;;;;2.00;1.80;;;;;;;;;;5075870;28;20236;-85
2023/08/08 01:08:05;;;;;;;2.37;1.97;;;;;;;;;;5076761;28;20244;-86
2023/08/08 01:10:35;;;;;;;2.60;2.07;;;;;;;;;;5077306;28;20201;-85
2023/08/08 01:13:05;;;;;;;4.20;2.00;;;;;;;;;;5076594;28;20220;-85
2023/08/08 01:15:35;;;;;;;2.17;2.07;;;;;;;;;;5077012;28;20213;-85
2023/08/08 01:18:03;;;;;;;2.40;2.17;;;;;;;;;;5076686;28;20217;-85
2023/08/08 01:20:33;;;;;;;7.60;2.27;;;;;;;;;;5076848;28;20201;-85
2023/08/08 01:23:05;;;;;;;2.40;2.20;;;;;;;;;;5076235;28;20236;-84
2023/08/08 01:25:33;;;;;;;2.40;2.10;;;;;;;;;;5077189;28;20229;-84
2023/08/08 01:28:00;;;;;;;2.17;2.00;;;;;;;;;;5075360;28;20241;-85
2023/08/08 01:30:28;;;;;;;2.30;2.10;;;;;;;;;;5075741;28;20212;-84
2023/08/08 01:32:55;;;;;;;2.27;2.10;;;;;;;;;;5059431;28;20240;-85
2023/08/08 01:35:22;;;;;;;2.33;2.13;;;;;;;;;;5056640;28;20226;-85
2023/08/08 01:37:51;;;;;;;2.10;2.00;;;;;;;;;;5056281;28;20230;-85
2023/08/08 01:40:19;;;;;;;2.93;2.23;;;;;;;;;;5056563;28;20214;-85
2023/08/08 01:42:48;;;;;;;2.87;1.97;;;;;;;;;;5055759;28;20658;-85
2023/08/08 01:45:16;;;;;;;2.23;2.03;;;;;;;;;;5056770;28;20269;-85
2023/08/08 01:47:43;;;;;;;2.40;2.20;;;;;;;;;;5055779;28;20650;-85
2023/08/08 01:50:11;;;;;;;1.90;1.80;;;;;;;;;;5056260;28;20664;-85
2023/08/08 01:52:38;;;;;;;2.20;2.10;;;;;;;;;;5056133;28;20236;-85
2023/08/08 01:55:05;;;;;;;2.47;2.10;;;;;;;;;;5056152;28;20256;-85
2023/08/08 01:57:32;;;;;;;2.83;2.07;;;;;;;;;;5056247;28;20259;-85
2023/08/08 02:00:01;;;;;;;1.83;1.73;;;;;;;;;;5056526;28;20203;-85
2023/08/08 02:02:28;;;;;;;1.90;1.80;;;;;;;;;;5055697;28;20268;-85
2023/08/08 02:04:55;;;;;;;1.93;1.83;;;;;;;;;;5056191;28;20233;-85
2023/08/08 02:07:22;;;;;;;1.80;1.70;;;;;;;;;;5071265;28;20734;-85
2023/08/08 02:09:50;;;;;;;1.90;1.80;;;;;;;;;;5056432;28;20564;-85
2023/08/08 02:12:17;;;;;;;2.67;1.63;;;;;;;;;;5055398;28;20257;-85
2023/08/08 02:14:44;;;;;;;2.43;1.90;;;;;;;;;;5055884;28;20230;-85
2023/08/08 02:17:13;;;;;;;2.30;2.10;;;;;;;;;;5071611;28;20233;-85
2023/08/08 02:19:40;;;;;;;3.93;1.73;;;;;;;;;;5067775;28;20186;-85
2023/08/08 02:22:07;;;;;;;2.07;1.93;;;;;;;;;;5055312;28;20230;-85
2023/08/08 02:24:34;;;;;;;2.60;1.90;;;;;;;;;;5062612;28;20224;-85
2023/08/08 02:27:01;;;;;;;1.90;1.80;;;;;;;;;;5074941;28;20245;-84
2023/08/08 02:29:28;;;;;;;2.27;1.80;;;;;;;;;;5074345;28;20198;-85
2023/08/08 02:31:55;;;;;;;1.80;1.70;;;;;;;;;;5073828;28;20233;-84
2023/08/08 02:34:23;;;;;;;2.03;1.90;;;;;;;;;;5059586;28;20241;-86
2023/08/08 02:36:50;;;;;;;2.20;1.73;;;;;;;;;;5056813;28;20248;-85
2023/08/08 02:39:18;;;;;;;1.70;1.60;;;;;;;;;;5075341;28;20213;-85
2023/08/08 02:41:45;;;;;;;1.97;1.80;;;;;;;;;;5064130;28;20238;-85
2023/08/08 02:44:12;;;;;;;2.30;1.70;;;;;;;;;;5060436;28;20296;-85
2023/08/08 02:46:39;;;;;;;1.93;1.60;;;;;;;;;;5054800;28;20340;-85
2023/08/08 02:49:06;;;;;;;2.00;1.90;;;;;;;;;;5055369;28;20575;-85
2023/08/08 02:51:34;;;;;;;2.07;1.87;;;;;;;;;;5067337;28;20236;-85
2023/08/08 02:54:01;;;;;;;1.83;1.70;;;;;;;;;;5074944;28;20230;-85
2023/08/08 02:56:28;;;;;;;1.97;1.80;;;;;;;;;;5074748;28;20300;-85
2023/08/08 02:58:55;;;;;;;1.80;1.70;;;;;;;;;;5075569;28;20220;-85
2023/08/08 03:01:22;;;;;;;1.83;1.73;;;;;;;;;;5074687;28;20575;-85
2023/08/08 03:03:50;;;;;;;1.57;1.50;;;;;;;;;;5074822;28;20707;-85
2023/08/08 03:06:17;;;;;;;1.73;1.63;;;;;;;;;;5056333;28;20232;-85
2023/08/08 03:08:45;;;;;;;1.47;1.40;;;;;;;;;;5055216;28;20210;-85
2023/08/08 03:11:12;;;;;;;1.80;1.70;;;;;;;;;;5054570;28;20217;-85
2023/08/08 03:13:39;;;;;;;1.90;1.73;;;;;;;;;;5055026;28;20290;-85
2023/08/08 03:16:06;;;;;;;1.60;1.50;;;;;;;;;;5054504;28;20206;-85
2023/08/08 03:18:33;;;;;;;2.57;1.80;;;;;;;;;;5054801;28;20419;-85
2023/08/08 03:21:00;;;;;;;1.80;1.70;;;;;;;;;;5054629;28;20213;-84
2023/08/08 03:23:27;;;;;;;1.70;1.60;;;;;;;;;;5053660;28;20336;-85
2023/08/08 03:25:56;;;;;;;2.93;1.90;;;;;;;;;;5054184;28;20210;-84
2023/08/08 03:28:23;;;;;;;2.20;1.70;;;;;;;;;;5052631;28;20240;-84
2023/08/08 03:30:50;;;;;;;2.00;1.90;;;;;;;;;;5053669;28;20202;-84
2023/08/08 03:33:17;;;;;;;3.43;1.90;;;;;;;;;;5054192;28;20233;-85
2023/08/08 03:35:44;;;;;;;1.83;1.73;;;;;;;;;;5054750;28;20226;-85
2023/08/08 03:38:11;;;;;;;4.17;1.90;;;;;;;;;;5054453;28;20261;-84
2023/08/08 03:40:38;;;;;;;2.10;1.90;;;;;;;;;;5054786;28;20205;-85
2023/08/08 03:43:07;;;;;;;1.70;1.60;;;;;;;;;;5054065;28;20233;-84
2023/08/08 03:45:34;;;;;;;2.17;2.00;;;;;;;;;;5054607;28;20230;-84
2023/08/08 03:48:01;;;;;;;3.87;1.80;;;;;;;;;;5053831;28;20726;-84
2023/08/08 03:50:28;;;;;;;2.50;1.80;;;;;;;;;;5054627;28;20214;-85
2023/08/08 03:52:55;;;;;;;3.43;1.73;;;;;;;;;;5053720;28;20610;-85
2023/08/08 03:55:22;;;;;;;3.60;1.73;;;;;;;;;;5054237;28;20230;-85
2023/08/08 03:57:49;;;;;;;2.23;2.03;;;;;;;;;;5053829;28;20728;-85
2023/08/08 04:00:18;;;;;;;1.80;1.70;;;;;;;;;;5054487;28;20213;-85
2023/08/08 04:02:45;;;;;;;2.83;1.90;;;;;;;;;;5071986;28;20233;-85
2023/08/08 04:05:12;;;;;;;3.70;2.10;;;;;;;;;;5054154;28;20712;-85
2023/08/08 04:07:39;;;;;;;2.23;2.00;;;;;;;;;;5056111;28;20233;-84
2023/08/08 04:10:07;;;;;;;2.90;1.90;;;;;;;;;;5074899;28;20667;-86
2023/08/08 04:12:34;;;;;;;1.87;1.70;;;;;;;;;;5074145;28;20260;-85
2023/08/08 04:15:01;;;;;;;3.00;1.60;;;;;;;;;;5074733;28;20236;-85
2023/08/08 04:17:32;;;;;;;1.70;1.60;;;;;;;;;;5078623;28;20221;-85
2023/08/08 04:19:59;;;;;;;2.33;1.93;;;;;;;;;;5054487;28;20186;-85
2023/08/08 04:22:26;;;;;;;2.07;1.80;;;;;;;;;;5053541;28;20233;-85
2023/08/08 04:24:53;;;;;;;1.90;1.80;;;;;;;;;;5053741;28;20222;-85
2023/08/08 04:27:20;;;;;;;4.10;2.00;;;;;;;;;;5052173;28;20249;-84
2023/08/08 04:29:47;;;;;;;2.40;2.00;;;;;;;;;;5053252;28;20213;-85
2023/08/08 04:32:14;;;;;;;2.77;1.87;;;;;;;;;;5053332;28;20229;-85
2023/08/08 04:34:42;;;;;;;2.57;2.10;;;;;;;;;;5061758;28;20722;-85
2023/08/08 04:37:09;;;;;;;2.40;2.20;;;;;;;;;;5077247;28;20225;-85
2023/08/08 04:39:36;;;;;;;2.40;2.20;;;;;;;;;;5072881;28;20224;-85
2023/08/08 04:42:04;;;;;;;2.53;2.13;;;;;;;;;;5057177;28;20233;-85
2023/08/08 04:44:31;;;;;;;6.33;2.30;;;;;;;;;;5057350;28;20225;-84
2023/08/08 04:46:59;;;;;;;4.37;2.70;;;;;;;;;;5070357;28;20240;-85
2023/08/08 04:49:26;;;;;;;8.03;2.00;;;;;;;;;;5076309;28;20216;-86
2023/08/08 04:51:54;;;;;;;3.80;2.10;;;;;;;;;;5070905;28;20237;-85
2023/08/08 04:54:21;;;;;;;1.97;1.80;;;;;;;;;;5076251;28;20298;-86
2023/08/08 04:56:49;;;;;;;3.93;2.20;;;;;;;;;;5076992;28;20240;-86
2023/08/08 04:59:16;;;;;;;2.03;1.93;;;;;;;;;;5077445;28;20210;-86
2023/08/08 05:01:43;;;;;;;2.47;2.27;;;;;;;;;;5076974;28;20251;-86
2023/08/08 05:04:10;;;;;;;2.30;2.10;;;;;;;;;;5077276;28;20743;-86
2023/08/08 05:06:38;;;;;;;2.60;2.30;;;;;;;;;;5077017;28;20315;-85
2023/08/08 05:09:09;;;;;;;2.40;2.20;;;;;;;;;;5077658;28;20597;-88
2023/08/08 05:11:36;;;;;;;3.53;2.00;;;;;;;;;;5073941;28;20812;-86
2023/08/08 05:14:03;;;;;;;2.93;2.10;;;;;;;;;;5063869;28;20221;-87
2023/08/08 05:16:30;;;;;;;6.00;2.20;;;;;;;;;;5068557;28;20225;-86
2023/08/08 05:18:57;;;;;;;2.37;2.10;;;;;;;;;;5057676;28;20193;-86
2023/08/08 05:21:24;;;;;;;1.70;1.60;;;;;;;;;;5056707;28;20212;-86
2023/08/08 05:23:51;;;;;;;2.47;2.20;;;;;;;;;;5055933;28;20233;-86
2023/08/08 05:26:19;;;;;;;3.33;2.13;;;;;;;;;;5054542;28;20210;-86
2023/08/08 05:28:47;;;;;;;2.13;2.00;;;;;;;;;;5056215;28;20226;-86
2023/08/08 05:31:14;;;;;;;2.53;2.00;;;;;;;;;;5055538;28;20202;-86
2023/08/08 05:33:41;;;;;;;1.90;1.80;;;;;;;;;;5056700;28;20198;-86
2023/08/08 05:36:08;;;;;;;2.47;1.97;;;;;;;;;;5056220;28;20211;-86
2023/08/08 05:38:35;;;;;;;3.10;2.07;;;;;;;;;;5056387;28;20564;-86
2023/08/08 05:41:02;;;;;;;4.60;2.10;;;;;;;;;;5056660;28;20704;-86
2023/08/08 05:43:31;;;;;;;2.20;2.00;;;;;;;;;;5055678;28;20317;-86
2023/08/08 05:45:58;;;;;;;2.23;2.03;;;;;;;;;;5056420;28;20206;-86
2023/08/08 05:48:25;;;;;;;5.97;2.07;;;;;;;;;;5055366;28;20238;-86
2023/08/08 05:50:53;;;;;;;4.40;2.10;;;;;;;;;;5056148;28;20519;-85
2023/08/08 05:53:20;;;;;;;3.03;1.90;;;;;;;;;;5055136;28;20234;-86
2023/08/08 05:55:47;;;;;;;2.10;1.70;;;;;;;;;;5058422;28;20604;-86
2023/08/08 05:58:14;;;;;;;4.30;2.10;;;;;;;;;;5073123;28;20707;-85
2023/08/08 06:00:43;;;;;;;3.10;1.83;;;;;;;;;;5088772;28;20545;-85
2023/08/08 06:03:10;;;;;;;2.47;2.20;;;;;;;;;;5095697;28;20580;-87
2023/08/08 06:05:37;;;;;;;1.67;1.57;;;;;;;;;;5062343;28;20246;-87
2023/08/08 06:08:07;;;;;;;3.53;1.90;;;;;;;;;;5055413;28;20265;-87
2023/08/08 06:10:35;;;;;;;2.30;2.10;;;;;;;;;;5055985;28;20285;-86
2023/08/08 06:13:02;;;;;;;2.57;1.90;;;;;;;;;;5056856;28;20286;-86
2023/08/08 06:15:29;;;;;;;2.00;1.80;;;;;;;;;;5071107;28;20218;-85
2023/08/08 06:17:57;;;;;;;3.00;2.00;;;;;;;;;;5074946;28;20229;-86
2023/08/08 06:20:24;;;;;;;2.87;1.80;;;;;;;;;;5072241;28;20201;-85
2023/08/08 06:22:51;;;;;;;2.40;1.63;;;;;;;;;;5072259;28;20232;-84
2023/08/08 06:25:18;;;;;;;2.10;1.90;;;;;;;;;;5064640;28;20232;-88
2023/08/08 06:27:46;;;;;;;2.97;1.93;;;;;;;;;;5073725;28;20233;-86
2023/08/08 06:30:13;;;;;;;4.70;2.13;;;;;;;;;;5072839;28;20208;-86
2023/08/08 06:32:40;;;;;;;1.63;1.53;;;;;;;;;;5076632;28;20233;-86
2023/08/08 06:35:09;;;;;;;2.80;1.60;;;;;;;;;;5069903;28;20222;-86
2023/08/08 06:37:36;;;;;;;2.50;1.70;;;;;;;;;;5074504;28;20229;-86
2023/08/08 06:40:03;;;;;;;2.03;1.73;;;;;;;;;;5074026;28;20209;-86
2023/08/08 06:42:30;;;;;;;2.97;1.90;;;;;;;;;;5070434;28;20256;-85
2023/08/08 06:44:57;;;;;;;4.70;1.80;;;;;;;;;;5067764;28;20233;-85
2023/08/08 06:47:24;;;;;;;1.83;1.73;;;;;;;;;;5077237;28;20224;-84
2023/08/08 06:49:51;;;;;;;3.20;2.00;;;;;;;;;;5079755;28;20208;-85
2023/08/08 06:52:20;;;;;;;2.17;1.80;;;;;;;;;;5068212;28;20239;-86
2023/08/08 06:54:47;;;;;;;1.60;1.50;;;;;;;;;;5074115;28;20236;-84
2023/08/08 06:57:14;;;;;;;5.07;1.60;;;;;;;;;;5072178;28;20233;-84
2023/08/08 06:59:41;;;;;;;3.53;2.07;;;;;;;;;;5073791;28;20228;-84
2023/08/08 07:02:09;;;;;;;1.70;1.50;;;;;;;;;;5074203;28;20230;-85
2023/08/08 07:04:37;;;;;;;1.67;1.57;;;;;;;;;;5073487;28;20229;-85
2023/08/08 07:07:04;;;;;;;1.77;1.50;;;;;;;;;;5073618;28;20245;-85
2023/08/08 07:09:34;;;;;;;2.80;1.80;;;;;;;;;;5073415;28;20233;-85
2023/08/08 07:12:01;;;;;;;2.37;1.57;;;;;;;;;;5072702;28;20229;-85
2023/08/08 07:14:28;;;;;;;2.10;1.40;;;;;;;;;;5073437;28;20248;-86
2023/08/08 07:16:55;;;;;;;3.60;1.30;;;;;;;;;;5073653;28;20276;-86
2023/08/08 07:19:22;;;;;;;1.87;1.60;;;;;;;;;;5073762;28;20635;-86
2023/08/08 07:21:50;;;;;;;2.07;1.40;;;;;;;;;;5075001;28;20243;-86
2023/08/08 07:24:17;;;;;;;2.23;1.37;;;;;;;;;;5074202;28;20316;-86
2023/08/08 07:26:45;;;;;;;1.53;1.43;;;;;;;;;;5071990;28;20235;-86
2023/08/08 07:29:12;;;;;;;4.00;1.38;;;;;;;;;;5072812;28;20219;-86
2023/08/08 07:31:39;;;;;;;2.13;1.17;;;;;;;;;;5077851;28;20248;-86
2023/08/08 07:34:06;;;;;;;1.80;1.30;;;;;;;;;;5069241;28;20224;-86
2023/08/08 07:36:33;;;;;;;3.55;1.30;;;;;;;;;;5073161;28;20905;-87
2023/08/08 07:39:00;;;;;;;1.63;1.30;;;;;;;;;;5073816;28;20208;-87
2023/08/08 07:41:27;;;;;;;1.60;1.13;;;;;;;;;;5073551;28;20232;-86
2023/08/08 07:43:56;;;;;;;1.65;1.50;;;;;;;;;;5068201;28;20226;-88
2023/08/08 07:46:24;;;;;;;1.50;1.40;;;;;;;;;;5063078;28;20201;-86
2023/08/08 07:48:51;;;;;;;2.17;1.60;;;;;;;;;;5072586;28;20257;-85
2023/08/08 07:51:18;;;;;;;3.67;1.23;;;;;;;;;;5070622;28;20292;-87
2023/08/08 07:53:45;;;;;;;2.88;1.40;;;;;;;;;;5072978;28;20217;-86
2023/08/08 07:56:12;;;;;;;2.10;1.08;;;;;;;;;;5073175;28;20212;-86
2023/08/08 07:58:39;;;;;;;1.67;1.33;;;;;;;;;;5073681;28;20197;-87
2023/08/08 08:01:08;;;;;;;3.88;1.40;;;;;;;;;;5072466;28;20197;-88
2023/08/08 08:03:35;;;;;;;1.40;1.30;;;;;;;;;;5072778;28;20682;-86
2023/08/08 08:06:02;;;;;;;2.25;1.20;;;;;;;;;;5073648;28;20205;-86
2023/08/08 08:08:29;;;;;;;2.03;1.40;;;;;;;;;;5072759;28;20233;-86
2023/08/08 08:10:56;;;;;;;1.35;1.00;;;;;;;;;;5077213;28;20201;-86
2023/08/08 08:13:23;;;;;;;4.57;0.98;;;;;;;;;;5066830;28;20247;-87
2023/08/08 08:15:50;;;;;;;1.95;1.40;;;;;;;;;;5075192;28;20229;-85
2023/08/08 08:18:19;;;;;;;1.40;1.30;;;;;;;;;;5072165;28;20220;-85
2023/08/08 08:20:47;;;;;;;3.72;1.23;;;;;;;;;;5076819;28;20187;-85
2023/08/08 08:23:14;;;;;;;1.67;1.13;;;;;;;;;;5076218;28;20631;-85
2023/08/08 08:25:41;;;;;;;3.08;1.23;;;;;;;;;;5075951;28;20248;-85
2023/08/08 08:28:08;;;;;;;3.53;1.20;;;;;;;;;;5075315;28;20698;-85
2023/08/08 08:30:36;;;;;;;1.30;1.20;;;;;;;;;;5076468;28;20575;-84
2023/08/08 08:33:04;;;;;;;1.58;1.48;;;;;;;;;;5075123;28;20719;-85
2023/08/08 08:35:32;;;;;;;1.83;1.10;;;;;;;;;;5075616;28;20602;-85
2023/08/08 08:37:59;;;;;;;1.30;1.20;;;;;;;;;;5076693;28;20228;-86
2023/08/08 08:40:26;;;;;;;1.33;1.23;;;;;;;;;;5076935;28;20209;-87
2023/08/08 08:42:54;;;;;;;1.25;1.08;;;;;;;;;;5076146;28;20233;-86
2023/08/08 08:45:22;;;;;;;1.40;1.15;;;;;;;;;;5076128;28;20275;-86
2023/08/08 08:47:50;;;;;;;2.63;1.42;;;;;;;;;;5075358;28;20229;-86
2023/08/08 08:50:17;;;;;;;2.22;1.17;;;;;;;;;;5076383;28;20308;-90
2023/08/08 08:52:45;;;;;;;1.55;1.10;;;;;;;;;;5076192;28;20236;-85
2023/08/08 08:55:15;;;;;;;2.63;1.23;;;;;;;;;;5075607;28;20233;-86
2023/08/08 08:57:44;;;;;;;2.17;1.25;;;;;;;;;;5067395;28;20675;-92
2023/08/08 09:00:12;;;;;;;6.25;2.45;;;;;;;;;;5076465;28;20622;-90
2023/08/08 09:02:39;;;;;;;2.28;1.20;;;;;;;;;;5075575;28;20241;-85
2023/08/08 09:05:07;;;;;;;1.70;1.40;;;;;;;;;;5077248;28;20236;-86
2023/08/08 09:07:34;;;;;;;1.25;1.15;;;;;;;;;;5075525;28;20240;-85
2023/08/08 09:10:03;;;;;;;1.58;1.13;;;;;;;;;;5074704;28;20229;-86
2023/08/08 09:12:31;;;;;;;0.90;0.80;;;;;;;;;;5075971;28;20236;-87
2023/08/08 09:14:58;;;;;;;1.58;1.20;;;;;;;;;;5075358;28;20714;-86
2023/08/08 09:17:26;;;;;;;1.15;0.95;;;;;;;;;;5075336;28;20514;-86
2023/08/08 09:19:54;;;;;;;1.45;0.90;;;;;;;;;;5075904;28;20249;-86
2023/08/08 09:22:23;;;;;;;1.92;1.20;;;;;;;;;;5074804;28;20299;-87
2023/08/08 09:24:50;;;;;;;1.92;0.95;;;;;;;;;;5058144;28;20222;-86
2023/08/08 09:27:19;;;;;;;2.30;1.15;;;;;;;;;;5071920;28;20316;-89
2023/08/08 09:29:46;;;;;;;1.15;0.93;;;;;;;;;;5072482;28;20229;-86
2023/08/08 09:32:13;;;;;;;2.70;1.20;;;;;;;;;;5073726;28;20228;-85
2023/08/08 09:34:42;;;;;;;0.90;0.90;;;;;;;;;;5072093;28;20576;-86
2023/08/08 09:37:10;;;;;;;2.28;1.20;;;;;;;;;;5064181;28;20234;-86
2023/08/08 09:39:37;;;;;;;1.63;1.48;;;;;;;;;;5071253;28;20249;-86
2023/08/08 09:42:05;;;;;;;2.45;1.00;;;;;;;;;;5075075;28;20233;-86
2023/08/08 09:44:35;;;;;;;3.08;1.20;;;;;;;;;;5067945;28;20230;-86
2023/08/08 09:47:02;;;;;;;1.63;0.93;;;;;;;;;;5068040;28;20244;-89
2023/08/08 09:49:31;;;;;;;1.90;1.33;;;;;;;;;;5074391;28;20697;-86
2023/08/08 09:51:59;;;;;;;1.33;0.90;;;;;;;;;;5071531;28;20233;-87
2023/08/08 09:54:27;;;;;;;1.55;0.80;;;;;;;;;;5065791;28;20252;-85
2023/08/08 09:56:55;;;;;;;1.63;1.10;;;;;;;;;;5066863;28;20294;-86
2023/08/08 09:59:22;;;;;;;0.85;0.85;;;;;;;;;;5075244;28;20679;-87
2023/08/08 10:01:51;;;;;;;0.98;0.93;;;;;;;;;;5074930;28;20244;-87
2023/08/08 10:04:18;;;;;;;0.80;0.80;;;;;;;;;;5075088;28;20229;-87
2023/08/08 10:06:45;;;;;;;2.38;1.38;;;;;;;;;;5073432;28;20234;-87
2023/08/08 10:09:13;;;;;;;1.58;1.45;;;;;;;;;;5072823;28;20706;-86
2023/08/08 10:11:42;;;;;;;1.17;1.08;;;;;;;;;;5074922;28;20296;-86
2023/08/08 10:14:11;;;;;;;1.25;1.15;;;;;;;;;;5074909;28;20222;-84
2023/08/08 10:16:38;;;;;;;2.13;0.88;;;;;;;;;;5070196;28;20604;-85
2023/08/08 10:19:06;;;;;;;1.75;0.85;;;;;;;;;;5074946;28;20216;-85
2023/08/08 10:21:35;;;;;;;1.40;1.20;;;;;;;;;;5074065;28;20609;-84
2023/08/08 10:24:02;;;;;;;1.27;1.10;;;;;;;;;;5074300;28;20225;-84
2023/08/08 10:26:30;;;;;;;3.78;1.25;;;;;;;;;;5073992;28;20228;-85
2023/08/08 10:28:58;;;;;;;3.80;1.08;;;;;;;;;;5074618;28;20225;-86
2023/08/08 10:31:25;;;;;;;2.03;1.58;;;;;;;;;;5073540;28;20245;-84
2023/08/08 10:34:02;;;;;;;2.72;1.35;;;;;;;;;;5074248;28;20225;-85
2023/08/08 10:36:44;;;;;;;4.30;1.10;;;;;;;;;;5062608;28;20228;-85
2023/08/08 10:39:12;;;;;;;3.15;1.30;;;;;;;;;;5065563;28;20201;-85
2023/08/08 10:41:45;;;;;;;1.73;1.20;;;;;;;;;;5073899;28;20259;-84
2023/08/08 10:44:12;;;;;;;1.20;1.10;;;;;;;;;;5073629;28;20236;-86
2023/08/08 10:46:42;;;;;;;1.30;1.20;;;;;;;;;;5064083;28;20252;-82
2023/08/08 10:49:09;;;;;;;1.60;1.00;;;;;;;;;;5074116;28;20232;-85
2023/08/08 10:51:42;;;;;;;2.17;1.20;;;;;;;;;;5075192;28;20229;-84
2023/08/08 10:54:13;;;;;;;2.08;1.05;;;;;;;;;;5064289;28;20260;-83
2023/08/08 10:56:40;;;;;;;2.72;1.33;;;;;;;;;;5071753;28;20229;-83
2023/08/08 10:59:16;;;;;;;2.63;1.27;;;;;;;;;;5073695;28;20250;-83
2023/08/08 11:01:43;;;;;;;2.08;1.20;;;;;;;;;;5073059;28;20217;-83
2023/08/08 11:04:12;;;;;;;2.95;1.30;;;;;;;;;;5072461;28;20238;-82
2023/08/08 11:06:40;;;;;;;1.00;1.00;;;;;;;;;;5072478;28;20247;-83
2023/08/08 11:09:08;;;;;;;1.13;1.02;;;;;;;;;;5073268;28;20224;-83
2023/08/08 11:11:37;;;;;;;2.28;1.30;;;;;;;;;;5071862;28;20232;-82
2023/08/08 11:14:10;;;;;;;1.40;1.20;;;;;;;;;;5068069;28;20259;-82
2023/08/08 11:16:37;;;;;;;1.38;0.95;;;;;;;;;;5069432;28;20229;-82
2023/08/08 11:19:04;;;;;;;3.20;1.50;;;;;;;;;;5074012;28;20686;-83
2023/08/08 11:21:32;;;;;;;1.80;1.20;;;;;;;;;;5073030;28;20249;-82
2023/08/08 11:24:00;;;;;;;0.93;0.80;;;;;;;;;;5070626;28;20232;-83
2023/08/08 11:26:31;;;;;;;3.47;1.40;;;;;;;;;;5065591;28;20226;-83
2023/08/08 11:28:58;;;;;;;1.48;1.05;;;;;;;;;;5067342;28;20613;-83
2023/08/08 11:31:26;;;;;;;2.75;1.50;;;;;;;;;;5072352;28;20232;-83
2023/08/08 11:33:54;;;;;;;1.20;1.10;;;;;;;;;;5065040;28;20244;-84
2023/08/08 11:36:22;;;;;;;3.10;0.95;;;;;;;;;;5072114;28;20208;-84
2023/08/08 11:38:49;;;;;;;2.28;1.50;;;;;;;;;;5070677;28;20259;-83
2023/08/08 11:41:19;;;;;;;1.88;0.88;;;;;;;;;;5070978;28;20201;-83
2023/08/08 11:43:47;;;;;;;3.00;1.40;;;;;;;;;;5070944;28;20553;-83
2023/08/08 11:46:14;;;;;;;1.67;1.05;;;;;;;;;;5066251;28;20255;-83
2023/08/08 11:48:41;;;;;;;3.40;1.38;;;;;;;;;;5072350;28;20598;-83
2023/08/08 11:51:09;;;;;;;1.65;1.15;;;;;;;;;;5071922;28;20739;-83
2023/08/08 11:53:36;;;;;;;1.65;1.20;;;;;;;;;;5072023;28;20257;-83
2023/08/08 11:56:04;;;;;;;1.83;1.35;;;;;;;;;;5064553;28;20204;-84
2023/08/08 11:58:32;;;;;;;1.73;1.10;;;;;;;;;;5071792;28;20229;-83
2023/08/08 12:01:00;;;;;;;1.83;1.08;;;;;;;;;;5073021;28;20223;-83
2023/08/08 12:03:27;;;;;;;1.80;0.85;;;;;;;;;;5070730;28;20718;-82
2023/08/08 12:05:54;;;;;;;3.03;1.27;;;;;;;;;;5071347;28;20212;-84
2023/08/08 12:08:23;;;;;;;1.20;0.93;;;;;;;;;;5073915;28;20304;-84
2023/08/08 12:10:51;;;;;;;1.85;1.17;;;;;;;;;;5071225;28;20256;-84
2023/08/08 12:13:21;;;;;;;2.28;1.45;;;;;;;;;;5071338;28;20675;-84
2023/08/08 12:15:49;;;;;;;1.85;1.30;;;;;;;;;;5071362;28;20229;-84
2023/08/08 12:18:18;;;;;;;1.88;1.10;;;;;;;;;;5070905;28;20339;-84
2023/08/08 12:20:45;;;;;;;2.10;1.25;;;;;;;;;;5070236;28;20676;-84
2023/08/08 12:23:12;;;;;;;2.53;1.40;;;;;;;;;;5071017;28;20256;-84
2023/08/08 12:25:39;;;;;;;1.30;1.20;;;;;;;;;;5071608;28;20617;-84
2023/08/08 12:28:07;;;;;;;2.28;1.02;;;;;;;;;;5071629;28;20225;-84
2023/08/08 12:30:34;;;;;;;1.17;1.00;;;;;;;;;;5071542;28;20220;-84
2023/08/08 12:33:03;;;;;;;1.75;1.60;;;;;;;;;;5066105;28;20229;-84
2023/08/08 12:35:30;;;;;;;2.22;1.27;;;;;;;;;;5068795;28;20225;-84
2023/08/08 12:37:57;;;;;;;1.77;1.00;;;;;;;;;;5064983;28;20225;-84
2023/08/08 12:40:25;;;;;;;2.13;1.10;;;;;;;;;;5071003;28;20193;-84
2023/08/08 12:42:52;;;;;;;2.55;1.33;;;;;;;;;;5068574;28;20275;-84
2023/08/08 12:45:19;;;;;;;1.23;1.08;;;;;;;;;;5070777;28;20233;-84
2023/08/08 12:47:46;;;;;;;3.08;1.30;;;;;;;;;;5068896;28;20234;-82
2023/08/08 12:50:15;;;;;;;2.70;1.23;;;;;;;;;;5071436;28;20221;-83
2023/08/08 12:52:42;;;;;;;2.22;1.20;;;;;;;;;;5064115;28;20699;-83
2023/08/08 12:55:11;;;;;;;5.57;1.38;;;;;;;;;;5070515;28;20240;-83
2023/08/08 12:57:38;;;;;;;2.88;1.83;;;;;;;;;;5073771;28;20216;-82
2023/08/08 13:00:08;;;;;;;1.67;1.05;;;;;;;;;;5075484;28;20193;-83
2023/08/08 13:02:36;;;;;;;1.73;1.13;;;;;;;;;;5074750;28;20605;-83
2023/08/08 13:05:03;;;;;;;1.25;1.15;;;;;;;;;;5073985;28;20298;-81
2023/08/08 13:07:34;;;;;;;1.50;1.20;;;;;;;;;;5073564;28;20240;-82
2023/08/08 13:10:01;;;;;;;3.05;1.13;;;;;;;;;;5072789;28;20278;-82
2023/08/08 13:12:28;;;;;;;1.95;1.00;;;;;;;;;;5067237;28;20232;-82
2023/08/08 13:14:55;;;;;;;1.98;1.30;;;;;;;;;;5073809;28;20221;-84
2023/08/08 13:17:22;;;;;;;1.45;0.93;;;;;;;;;;5074504;28;20228;-83
2023/08/08 13:19:49;;;;;;;1.92;1.30;;;;;;;;;;5071753;28;20271;-83
2023/08/08 13:22:17;;;;;;;2.85;1.20;;;;;;;;;;5069254;28;20259;-83
2023/08/08 13:24:45;;;;;;;1.95;1.02;;;;;;;;;;5074069;28;20706;-85
2023/08/08 13:27:12;;;;;;;1.85;1.45;;;;;;;;;;5074773;28;20233;-84
2023/08/08 13:29:39;;;;;;;1.67;1.35;;;;;;;;;;5073782;28;20209;-83
2023/08/08 13:32:06;;;;;;;1.02;0.93;;;;;;;;;;5074382;28;20225;-83
2023/08/08 13:34:33;;;;;;;1.83;1.67;;;;;;;;;;5066574;28;20229;-83
2023/08/08 13:37:00;;;;;;;1.58;1.17;;;;;;;;;;5068602;28;20671;-83
2023/08/08 13:39:27;;;;;;;1.02;0.98;;;;;;;;;;5073262;28;20258;-82
2023/08/08 13:41:56;;;;;;;1.48;1.10;;;;;;;;;;5073484;28;20646;-83
2023/08/08 13:44:23;;;;;;;0.90;0.90;;;;;;;;;;5074551;28;20224;-83
2023/08/08 13:46:51;;;;;;;2.40;1.65;;;;;;;;;;5073537;28;20257;-83
2023/08/08 13:49:18;;;;;;;2.20;1.10;;;;;;;;;;5075100;28;20209;-82
2023/08/08 13:51:45;;;;;;;2.15;1.10;;;;;;;;;;5073180;28;20237;-83
2023/08/08 13:54:12;;;;;;;2.13;1.20;;;;;;;;;;5073756;28;20225;-84
2023/08/08 13:56:39;;;;;;;1.20;1.10;;;;;;;;;;5073784;28;20248;-83
2023/08/08 13:59:07;;;;;;;2.17;1.10;;;;;;;;;;5074572;28;20211;-83
2023/08/08 14:01:34;;;;;;;0.98;0.90;;;;;;;;;;5073711;28;20331;-84
2023/08/08 14:04:02;;;;;;;1.70;1.20;;;;;;;;;;5065245;28;20236;-83
2023/08/08 14:06:29;;;;;;;1.67;1.20;;;;;;;;;;5072071;28;20734;-84
2023/08/08 14:08:56;;;;;;;1.27;1.17;;;;;;;;;;5069300;28;20205;-83
2023/08/08 14:11:24;;;;;;;2.20;1.10;;;;;;;;;;5067642;28;20225;-83
2023/08/08 14:13:51;;;;;;;1.88;1.63;;;;;;;;;;5073689;28;20229;-84
2023/08/08 14:16:19;;;;;;;2.58;1.17;;;;;;;;;;5073582;28;20528;-84
2023/08/08 14:18:46;;;;;;;1.38;1.27;;;;;;;;;;5065083;28;20209;-84
2023/08/08 14:21:13;;;;;;;2.28;1.23;;;;;;;;;;5069701;28;20193;-84
2023/08/08 14:23:40;;;;;;;1.33;0.90;;;;;;;;;;5072729;28;20219;-85
2023/08/08 14:26:07;;;;;;;1.80;0.95;;;;;;;;;;5073445;28;20209;-85
2023/08/08 14:28:34;;;;;;;1.55;0.80;;;;;;;;;;5073337;28;20575;-84
2023/08/08 14:31:01;;;;;;;2.00;1.13;;;;;;;;;;5068229;28;20227;-85
2023/08/08 14:33:30;;;;;;;1.30;0.95;;;;;;;;;;5072255;28;20266;-86
2023/08/08 14:35:57;;;;;;;1.20;1.10;;;;;;;;;;5056697;28;20209;-85
2023/08/08 14:38:25;;;;;;;3.08;1.35;;;;;;;;;;5073476;28;20229;-84
2023/08/08 14:40:53;;;;;;;2.28;1.20;;;;;;;;;;5057475;28;20566;-84
2023/08/08 14:43:20;;;;;;;1.65;1.00;;;;;;;;;;5068014;28;20221;-85
2023/08/08 14:45:47;;;;;;;1.27;0.93;;;;;;;;;;5072029;28;20227;-85